Time;durP1;ratioP1;P1;durP2;ratioP2;P2;SDS_P1;SDS_P2;PMS_P1;PMS_P2;Temp;Humidity;BMP_temperature;BMP_pressure;BME280_temperature;BME280_humidity;BME280_pressure;Samples;Min_cycle;Max_cycle;Signal;HPM_P1;HPM_P2
2021/04/27 00:00:36;;;;;;;9.60;5.47;;;;;;;4.05;100.00;100687.31;4968986;28;20324;-59
2021/04/27 00:03:05;;;;;;;8.32;5.40;;;;;;;3.81;100.00;100689.28;4968115;28;20050;-59
2021/04/27 00:05:32;;;;;;;11.55;6.07;;;;;;;3.83;100.00;100687.34;4970529;28;20490;-59
2021/04/27 00:07:59;;;;;;;10.70;6.60;;;;;;;3.91;100.00;100682.28;4971903;28;20054;-59
2021/04/27 00:10:27;;;;;;;11.52;5.78;;;;;;;3.92;100.00;100681.34;4970478;28;20045;-59
2021/04/27 00:12:54;;;;;;;12.05;6.85;;;;;;;3.91;100.00;100680.50;4969080;28;20632;-59
2021/04/27 00:15:23;;;;;;;12.02;6.55;;;;;;;4.01;100.00;100677.94;4968920;28;20051;-59
2021/04/27 00:17:51;;;;;;;15.20;6.22;;;;;;;3.83;100.00;100676.78;4968050;28;20034;-59
2021/04/27 00:20:20;;;;;;;13.27;6.55;;;;;;;3.86;100.00;100666.00;4969773;28;20139;-59
2021/04/27 00:22:48;;;;;;;10.88;6.60;;;;;;;4.03;100.00;100670.75;4967497;28;20035;-59
2021/04/27 00:25:15;;;;;;;10.25;6.35;;;;;;;3.73;100.00;100661.69;4967842;28;20048;-59
2021/04/27 00:27:44;;;;;;;12.20;6.95;;;;;;;3.78;100.00;100663.94;4967353;28;20139;-59
2021/04/27 00:30:12;;;;;;;13.13;6.28;;;;;;;3.75;100.00;100659.75;4969100;28;20062;-59
2021/04/27 00:32:39;;;;;;;11.65;6.22;;;;;;;3.64;100.00;100657.13;4968169;28;20046;-59
2021/04/27 00:35:08;;;;;;;14.05;6.57;;;;;;;3.71;100.00;100662.75;4968059;28;20039;-59
2021/04/27 00:37:34;;;;;;;11.50;6.80;;;;;;;3.67;100.00;100650.75;4969567;28;20483;-59
2021/04/27 00:40:02;;;;;;;15.45;7.43;;;;;;;3.51;100.00;100657.25;4969773;28;20035;-59
2021/04/27 00:42:30;;;;;;;12.77;7.07;;;;;;;3.34;100.00;100655.13;4968752;28;20042;-59
2021/04/27 00:44:58;;;;;;;14.13;6.45;;;;;;;3.16;100.00;100657.38;4968994;28;20047;-59
2021/04/27 00:47:25;;;;;;;10.60;6.53;;;;;;;3.17;100.00;100653.78;4970587;28;20427;-59
2021/04/27 00:49:54;;;;;;;14.80;6.65;;;;;;;3.59;100.00;100649.56;4971225;28;20043;-59
2021/04/27 00:52:24;;;;;;;17.73;7.53;;;;;;;3.49;100.00;100645.13;4968918;28;20043;-59
2021/04/27 00:54:51;;;;;;;15.55;7.72;;;;;;;3.51;100.00;100645.88;4967594;28;20067;-59
2021/04/27 00:57:18;;;;;;;18.33;8.93;;;;;;;3.36;100.00;100648.75;4971038;28;20057;-59
2021/04/27 00:59:45;;;;;;;16.35;7.22;;;;;;;3.19;100.00;100641.31;4969321;28;20073;-59
2021/04/27 01:02:12;;;;;;;17.63;6.45;;;;;;;3.05;100.00;100635.31;4970240;28;20057;-59
2021/04/27 01:04:39;;;;;;;16.55;7.13;;;;;;;3.33;100.00;100641.09;4968415;28;20053;-59
2021/04/27 01:07:06;;;;;;;23.10;9.68;;;;;;;3.33;100.00;100630.53;4967431;28;20047;-59
2021/04/27 01:09:38;;;;;;;13.43;6.78;;;;;;;3.36;100.00;100630.28;4968424;28;20332;-59
2021/04/27 01:12:15;;;;;;;10.02;6.35;;;;;;;3.34;100.00;100626.91;4968124;28;20069;-59
2021/04/27 01:14:45;;;;;;;11.77;6.22;;;;;;;3.60;100.00;100627.50;4967295;28;20545;-59
2021/04/27 01:17:14;;;;;;;10.15;5.78;;;;;;;3.41;100.00;100629.91;4968909;28;20774;-59
2021/04/27 01:19:56;;;;;;;12.32;5.88;;;;;;;3.51;100.00;100624.75;4968817;28;20115;-59
2021/04/27 01:22:29;;;;;;;10.13;5.40;;;;;;;3.62;100.00;100622.09;4966708;28;20043;-59
2021/04/27 01:25:00;;;;;;;9.73;6.47;;;;;;;3.37;100.00;100618.75;4964348;28;20430;-59
2021/04/27 01:27:28;;;;;;;10.52;5.78;;;;;;;3.61;100.00;100615.13;4972488;28;20042;-59
2021/04/27 01:29:55;;;;;;;12.57;6.68;;;;;;;3.62;100.00;100612.34;4969157;28;20058;-59
2021/04/27 01:32:22;;;;;;;11.73;5.28;;;;;;;3.93;100.00;100624.91;4969630;28;20057;-59
2021/04/27 01:34:49;;;;;;;8.85;5.65;;;;;;;3.71;100.00;100615.22;4967563;28;20630;-59
2021/04/27 01:37:17;;;;;;;11.07;5.68;;;;;;;3.81;100.00;100610.03;4969182;28;20054;-59
2021/04/27 01:39:44;;;;;;;12.38;6.75;;;;;;;3.60;100.00;100610.78;4968658;28;20043;-59
2021/04/27 01:42:11;;;;;;;14.15;6.88;;;;;;;3.42;100.00;100605.19;4967914;28;20478;-59
2021/04/27 01:44:42;;;;;;;15.10;6.07;;;;;;;3.34;100.00;100604.97;4966156;28;20042;-59
2021/04/27 01:47:10;;;;;;;11.32;5.95;;;;;;;3.38;100.00;100604.59;4974151;28;20435;-59
2021/04/27 01:49:39;;;;;;;11.43;6.43;;;;;;;3.34;100.00;100594.41;4973001;28;20046;-59
2021/04/27 01:52:06;;;;;;;12.30;5.97;;;;;;;3.32;100.00;100599.81;4974084;28;20042;-59
2021/04/27 01:54:33;;;;;;;12.00;6.13;;;;;;;3.14;100.00;100591.53;4970903;28;20505;-59
2021/04/27 01:57:01;;;;;;;12.95;7.10;;;;;;;3.01;100.00;100602.19;4974574;28;20043;-59
2021/04/27 01:59:28;;;;;;;11.48;6.72;;;;;;;2.95;100.00;100597.41;4972535;28;20039;-59
2021/04/27 02:01:56;;;;;;;21.25;8.00;;;;;;;3.17;100.00;100590.44;4971884;28;20043;-59
2021/04/27 02:04:24;;;;;;;11.27;6.00;;;;;;;3.30;100.00;100577.13;4968073;28;20047;-59
2021/04/27 02:06:52;;;;;;;11.32;6.00;;;;;;;3.40;100.00;100580.69;4970765;28;20047;-59
2021/04/27 02:09:21;;;;;;;7.90;5.28;;;;;;;3.41;100.00;100585.03;4970267;28;20050;-59
2021/04/27 02:11:49;;;;;;;14.57;6.72;;;;;;;3.17;100.00;100579.91;4973670;28;20035;-59
2021/04/27 02:14:17;;;;;;;11.05;6.00;;;;;;;2.99;100.00;100583.03;4972739;28;20047;-59
2021/04/27 02:16:48;;;;;;;13.32;6.47;;;;;;;2.83;100.00;100577.25;4972155;28;20361;-59
2021/04/27 02:19:16;;;;;;;11.80;6.57;;;;;;;2.78;100.00;100574.97;4972655;28;20117;-59
2021/04/27 02:21:45;;;;;;;13.68;6.05;;;;;;;2.85;100.00;100577.97;4973904;28;20442;-59
2021/04/27 02:24:12;;;;;;;11.82;5.68;;;;;;;2.99;100.00;100575.13;4968983;28;20042;-59
2021/04/27 02:26:39;;;;;;;9.77;6.03;;;;;;;3.07;100.00;100575.31;4971586;28;20065;-59
2021/04/27 02:29:07;;;;;;;13.13;5.90;;;;;;;3.08;100.00;100576.19;4971884;28;20050;-59
2021/04/27 02:31:34;;;;;;;11.23;5.80;;;;;;;2.99;100.00;100574.25;4969164;28;20035;-59
2021/04/27 02:34:01;;;;;;;10.32;6.40;;;;;;;3.01;100.00;100578.47;4971750;28;20141;-59
2021/04/27 02:36:29;;;;;;;10.30;6.32;;;;;;;3.12;100.00;100568.84;4972458;28;20350;-59
2021/04/27 02:38:56;;;;;;;12.10;5.70;;;;;;;3.27;100.00;100565.00;4973963;28;20347;-59
2021/04/27 02:41:30;;;;;;;13.07;5.85;;;;;;;3.08;100.00;100558.53;4972394;28;20272;-59
2021/04/27 02:43:57;;;;;;;9.68;6.15;;;;;;;3.15;100.00;100565.97;4967850;28;20050;-59
2021/04/27 02:46:24;;;;;;;11.70;6.28;;;;;;;3.23;100.00;100555.66;4974314;28;20042;-58
2021/04/27 02:48:51;;;;;;;15.02;6.45;;;;;;;3.08;100.00;100566.47;4972356;28;20285;-59
2021/04/27 02:51:19;;;;;;;12.32;6.13;;;;;;;3.07;100.00;100564.78;4972130;28;20053;-59
2021/04/27 02:53:46;;;;;;;8.05;5.85;;;;;;;3.15;100.00;100563.31;4970265;28;20328;-59
2021/04/27 02:56:13;;;;;;;11.52;5.80;;;;;;;2.98;100.00;100565.50;4971992;28;20043;-59
2021/04/27 02:58:41;;;;;;;15.07;5.80;;;;;;;3.09;100.00;100556.72;4973274;28;20046;-58
2021/04/27 03:01:08;;;;;;;9.93;6.78;;;;;;;3.21;100.00;100561.06;4972270;28;20035;-59
2021/04/27 03:03:35;;;;;;;10.23;6.22;;;;;;;3.12;100.00;100561.78;4969795;28;20047;-58
2021/04/27 03:06:02;;;;;;;11.55;6.53;;;;;;;2.91;100.00;100559.03;4971642;28;20102;-59
2021/04/27 03:08:29;;;;;;;12.30;6.28;;;;;;;2.72;100.00;100555.19;4970367;28;20051;-59
2021/04/27 03:10:57;;;;;;;12.07;6.03;;;;;;;3.19;100.00;100556.84;4973477;28;20390;-59
2021/04/27 03:13:24;;;;;;;11.63;5.82;;;;;;;3.10;100.00;100559.28;4969272;28;20039;-59
2021/04/27 03:15:51;;;;;;;9.70;5.82;;;;;;;3.06;100.00;100549.06;4970783;28;20051;-58
2021/04/27 03:18:19;;;;;;;9.55;5.43;;;;;;;2.99;100.00;100545.22;4969882;28;20047;-58
2021/04/27 03:20:46;;;;;;;15.05;5.95;;;;;;;3.02;100.00;100535.28;4972694;28;20049;-59
2021/04/27 03:23:13;;;;;;;12.75;5.72;;;;;;;2.96;100.00;100538.41;4971691;28;20047;-58
2021/04/27 03:25:41;;;;;;;9.25;5.45;;;;;;;3.11;100.00;100539.00;4970997;28;20559;-58
2021/04/27 03:28:09;;;;;;;11.68;6.30;;;;;;;3.08;100.00;100542.72;4970649;28;20054;-58
2021/04/27 03:30:36;;;;;;;13.50;5.63;;;;;;;3.08;100.00;100539.25;4970046;28;20049;-59
2021/04/27 03:33:03;;;;;;;10.88;6.28;;;;;;;2.85;100.00;100531.34;4970317;28;20046;-59
2021/04/27 03:35:31;;;;;;;11.85;6.53;;;;;;;2.74;100.00;100539.25;4971699;28;20047;-59
2021/04/27 03:37:58;;;;;;;12.23;6.05;;;;;;;2.88;100.00;100532.91;4971626;28;20799;-59
2021/04/27 03:40:25;;;;;;;10.90;5.93;;;;;;;2.97;100.00;100534.81;4970754;28;20066;-58
2021/04/27 03:42:52;;;;;;;14.38;7.38;;;;;;;3.03;100.00;100534.31;4969870;28;20343;-58
2021/04/27 03:45:21;;;;;;;8.95;5.72;;;;;;;2.88;100.00;100543.47;4968092;28;20046;-58
2021/04/27 03:47:48;;;;;;;10.18;5.88;;;;;;;2.77;100.00;100532.91;4968994;28;20051;-59
2021/04/27 03:50:18;;;;;;;12.38;5.95;;;;;;;2.92;100.00;100529.91;4971029;28;20305;-58
2021/04/27 03:52:46;;;;;;;10.60;5.40;;;;;;;2.87;100.00;100532.03;4972654;28;20046;-59
2021/04/27 03:55:17;;;;;;;12.90;6.13;;;;;;;2.79;100.00;100536.25;4969567;28;20038;-58
2021/04/27 03:57:44;;;;;;;10.75;5.80;;;;;;;2.98;100.00;100531.22;4971868;28;20047;-58
2021/04/27 04:00:12;;;;;;;10.45;5.88;;;;;;;3.04;100.00;100527.25;4971326;28;20055;-60
2021/04/27 04:02:40;;;;;;;10.10;5.40;;;;;;;2.91;100.00;100527.38;4969485;28;20066;-58
2021/04/27 04:05:08;;;;;;;10.45;5.40;;;;;;;2.95;100.00;100522.69;4970881;28;20138;-60
2021/04/27 04:07:35;;;;;;;10.43;5.38;;;;;;;2.68;100.00;100524.75;4971557;28;20043;-61
2021/04/27 04:10:02;;;;;;;9.75;5.40;;;;;;;2.47;100.00;100519.34;4971946;28;20339;-58
2021/04/27 04:12:29;;;;;;;9.10;5.40;;;;;;;2.36;100.00;100525.41;4971678;28;20046;-59
2021/04/27 04:14:59;;;;;;;10.95;6.45;;;;;;;2.28;100.00;100530.41;4969161;28;20045;-59
2021/04/27 04:17:26;;;;;;;11.55;6.22;;;;;;;2.11;100.00;100522.97;4969650;28;20046;-59
2021/04/27 04:19:54;;;;;;;14.30;6.25;;;;;;;1.94;100.00;100525.06;4970757;28;20034;-59
2021/04/27 04:22:21;;;;;;;13.55;7.55;;;;;;;1.99;100.00;100522.09;4969228;28;20502;-59
2021/04/27 04:24:48;;;;;;;11.60;6.57;;;;;;;1.96;100.00;100525.78;4969078;28;20047;-59
2021/04/27 04:27:15;;;;;;;10.52;6.13;;;;;;;1.91;100.00;100527.09;4967222;28;20050;-58
2021/04/27 04:29:42;;;;;;;9.27;6.32;;;;;;;1.76;100.00;100519.38;4966771;28;20046;-59
2021/04/27 04:32:12;;;;;;;11.90;6.78;;;;;;;1.72;100.00;100518.75;4971187;28;20039;-59
2021/04/27 04:34:40;;;;;;;12.30;6.70;;;;;;;1.81;100.00;100519.03;4964577;28;20270;-58
2021/04/27 04:37:08;;;;;;;13.02;6.65;;;;;;;1.76;100.00;100526.41;4968941;28;20062;-59
2021/04/27 04:39:35;;;;;;;10.32;6.57;;;;;;;1.72;100.00;100523.19;4970975;28;20053;-59
2021/04/27 04:42:02;;;;;;;14.27;7.30;;;;;;;1.89;100.00;100519.31;4969736;28;20300;-59
2021/04/27 04:44:29;;;;;;;11.73;6.55;;;;;;;1.85;100.00;100521.31;4967503;28;20047;-59
2021/04/27 04:46:57;;;;;;;9.35;6.40;;;;;;;1.97;100.00;100516.09;4966706;28;20358;-58
2021/04/27 04:49:24;;;;;;;15.30;6.60;;;;;;;1.88;100.00;100526.34;4966584;28;20047;-59
2021/04/27 04:51:52;;;;;;;13.10;6.25;;;;;;;2.09;100.00;100514.34;4969038;28;20050;-58
2021/04/27 04:54:20;;;;;;;12.63;7.90;;;;;;;2.26;100.00;100518.34;4966728;28;20229;-59
2021/04/27 04:56:47;;;;;;;10.10;6.65;;;;;;;2.28;100.00;100517.25;4963791;28;20438;-59
2021/04/27 04:59:14;;;;;;;12.77;7.10;;;;;;;2.46;100.00;100516.81;4968240;28;20381;-59
2021/04/27 05:01:41;;;;;;;11.85;7.28;;;;;;;2.57;100.00;100516.81;4966301;28;20050;-59
2021/04/27 05:04:08;;;;;;;13.05;7.80;;;;;;;2.58;100.00;100515.88;4968856;28;20066;-58
2021/04/27 05:06:38;;;;;;;10.73;7.05;;;;;;;2.63;100.00;100510.25;4970080;28;20051;-59
2021/04/27 05:09:06;;;;;;;11.55;6.65;;;;;;;2.77;100.00;100501.25;4970957;28;20046;-58
2021/04/27 05:11:34;;;;;;;12.73;6.68;;;;;;;2.81;100.00;100500.03;4970787;28;20451;-58
2021/04/27 05:14:01;;;;;;;14.02;7.05;;;;;;;3.20;100.00;100500.47;4968985;28;20442;-59
2021/04/27 05:16:29;;;;;;;15.50;7.10;;;;;;;3.53;100.00;100507.47;4970823;28;20085;-59
2021/04/27 05:18:58;;;;;;;10.60;6.85;;;;;;;3.90;100.00;100503.63;4970143;28;20373;-58
2021/04/27 05:21:25;;;;;;;11.88;6.68;;;;;;;4.77;100.00;100502.44;4969908;28;20035;-58
2021/04/27 05:23:52;;;;;;;11.70;6.25;;;;;;;5.42;100.00;100502.91;4967898;28;20047;-58
2021/04/27 05:26:19;;;;;;;9.05;6.13;;;;;;;5.58;100.00;100510.31;4969331;28;20046;-58
2021/04/27 05:28:47;;;;;;;9.77;6.53;;;;;;;5.86;100.00;100508.63;4969753;28;20362;-58
2021/04/27 05:31:13;;;;;;;13.38;7.20;;;;;;;5.96;100.00;100513.13;4968633;28;21394;-59
2021/04/27 05:33:40;;;;;;;11.50;6.22;;;;;;;6.07;100.00;100507.69;4963461;28;20065;-58
2021/04/27 05:36:07;;;;;;;12.75;5.97;;;;;;;6.75;100.00;100501.38;4966458;28;20046;-58
2021/04/27 05:38:34;;;;;;;9.00;5.30;;;;;;;6.77;100.00;100507.38;4967610;28;20066;-58
2021/04/27 05:41:01;;;;;;;9.40;5.63;;;;;;;5.99;100.00;100502.25;4966348;28;20049;-60
2021/04/27 05:43:28;;;;;;;9.23;5.57;;;;;;;5.56;100.00;100503.47;4966701;28;20042;-60
2021/04/27 05:45:56;;;;;;;11.93;6.07;;;;;;;5.55;100.00;100504.47;4970406;28;20074;-60
2021/04/27 05:48:23;;;;;;;9.65;5.20;;;;;;;5.40;100.00;100493.41;4969434;28;20050;-60
2021/04/27 05:50:50;;;;;;;11.70;6.30;;;;;;;5.52;100.00;100498.44;4968155;28;20043;-60
2021/04/27 05:53:17;;;;;;;11.38;6.15;;;;;;;5.47;100.00;100495.38;4963296;28;20047;-60
2021/04/27 05:55:47;;;;;;;15.20;7.57;;;;;;;5.34;100.00;100500.09;4967167;28;20491;-60
2021/04/27 05:58:14;;;;;;;8.45;5.88;;;;;;;5.33;100.00;100501.06;4968119;28;20338;-60
2021/04/27 06:00:41;;;;;;;10.27;6.53;;;;;;;5.29;100.00;100491.75;4970675;28;20430;-60
2021/04/27 06:03:29;;;;;;;12.65;6.45;;;;;;;5.38;100.00;100490.91;4969045;28;20121;-60
2021/04/27 06:05:56;;;;;;;10.95;6.63;;;;;;;5.75;100.00;100502.66;4967319;28;20054;-58
2021/04/27 06:08:23;;;;;;;11.27;7.38;;;;;;;6.07;100.00;100496.22;4968278;28;20046;-58
2021/04/27 06:10:50;;;;;;;12.43;7.18;;;;;;;6.02;100.00;100491.38;4966046;28;20047;-58
2021/04/27 06:13:17;;;;;;;13.73;7.28;;;;;;;6.08;100.00;100495.25;4967052;28;20050;-58
2021/04/27 06:15:43;;;;;;;11.77;7.38;;;;;;;5.57;100.00;100489.25;4970658;28;20050;-58
2021/04/27 06:18:10;;;;;;;12.93;6.60;;;;;;;6.68;100.00;100489.69;4967732;28;20059;-58
2021/04/27 06:20:38;;;;;;;11.35;7.93;;;;;;;6.68;100.00;100498.47;4966838;28;20047;-58
2021/04/27 06:23:05;;;;;;;9.43;6.10;;;;;;;7.31;100.00;100498.72;4963874;28;20051;-58
2021/04/27 06:25:32;;;;;;;9.40;6.38;;;;;;;7.46;100.00;100491.06;4968786;28;20110;-58
2021/04/27 06:27:59;;;;;;;10.40;6.40;;;;;;;7.19;100.00;100493.59;4966511;28;20324;-58
2021/04/27 06:30:26;;;;;;;12.10;6.25;;;;;;;7.39;100.00;100482.88;4968985;28;20056;-58
2021/04/27 06:32:53;;;;;;;11.10;6.28;;;;;;;8.76;100.00;100487.72;4968003;28;20096;-58
2021/04/27 06:35:21;;;;;;;9.85;5.70;;;;;;;9.00;100.00;100480.84;4969904;28;20043;-60
2021/04/27 06:37:49;;;;;;;15.50;6.05;;;;;;;8.94;100.00;100479.66;4968565;28;20043;-57
2021/04/27 06:40:16;;;;;;;10.32;6.97;;;;;;;8.74;100.00;100478.22;4966240;28;20047;-59
2021/04/27 06:42:43;;;;;;;8.70;5.90;;;;;;;8.65;100.00;100474.72;4972800;28;20584;-58
2021/04/27 06:45:12;;;;;;;16.42;6.70;;;;;;;9.28;100.00;100476.06;4967364;28;20366;-58
2021/04/27 06:47:38;;;;;;;13.20;7.15;;;;;;;9.44;100.00;100471.78;4970485;28;20046;-58
2021/04/27 06:50:07;;;;;;;10.18;6.75;;;;;;;9.68;100.00;100472.81;4971132;28;20041;-58
2021/04/27 06:52:34;;;;;;;13.52;6.88;;;;;;;9.64;100.00;100470.50;4970854;28;20062;-58
2021/04/27 06:55:03;;;;;;;15.43;6.45;;;;;;;9.99;100.00;100460.50;4966447;28;20047;-58
2021/04/27 06:57:30;;;;;;;11.02;7.13;;;;;;;9.17;100.00;100463.09;4968884;28;20049;-58
2021/04/27 06:59:58;;;;;;;12.00;6.93;;;;;;;7.59;100.00;100464.94;4969789;28;20470;-58
2021/04/27 07:02:25;;;;;;;17.23;6.90;;;;;;;9.24;100.00;100464.09;4969997;28;20071;-58
2021/04/27 07:04:53;;;;;;;10.50;7.15;;;;;;;10.10;100.00;100461.16;4964611;28;20050;-58
2021/04/27 07:07:20;;;;;;;13.88;7.50;;;;;;;9.23;100.00;100458.94;4968087;28;20050;-58
2021/04/27 07:09:46;;;;;;;12.70;6.72;;;;;;;9.74;100.00;100458.81;4970246;28;20051;-58
2021/04/27 07:12:14;;;;;;;10.65;6.68;;;;;;;8.80;100.00;100458.94;4971136;28;20134;-58
2021/04/27 07:14:41;;;;;;;9.82;6.82;;;;;;;9.37;100.00;100455.63;4966966;28;20051;-58
2021/04/27 07:17:08;;;;;;;11.50;6.72;;;;;;;11.10;100.00;100463.38;4970744;28;20423;-58
2021/04/27 07:19:35;;;;;;;9.95;6.63;;;;;;;11.58;100.00;100452.53;4971511;28;20122;-58
2021/04/27 07:22:03;;;;;;;14.18;7.22;;;;;;;12.28;100.00;100457.81;4971876;28;20515;-58
2021/04/27 07:24:31;;;;;;;12.48;7.07;;;;;;;12.65;100.00;100458.75;4967014;28;20042;-58
2021/04/27 07:26:59;;;;;;;10.98;6.90;;;;;;;12.84;100.00;100455.50;4969767;28;20050;-58
2021/04/27 07:29:26;;;;;;;18.80;7.60;;;;;;;12.88;100.00;100454.09;4972383;28;20137;-58
2021/04/27 07:31:54;;;;;;;13.32;6.75;;;;;;;13.06;100.00;100459.06;4971335;28;20439;-58
2021/04/27 07:34:21;;;;;;;9.10;6.20;;;;;;;14.60;100.00;100454.19;4967863;28;20047;-58
2021/04/27 07:36:48;;;;;;;9.13;7.35;;;;;;;10.34;100.00;100460.31;4965697;28;20047;-58
2021/04/27 07:39:15;;;;;;;11.82;7.50;;;;;;;10.33;100.00;100454.13;4963716;28;20050;-58
2021/04/27 07:41:44;;;;;;;12.40;7.03;;;;;;;10.80;100.00;100451.63;4968095;28;20077;-58
2021/04/27 07:44:11;;;;;;;11.93;6.55;;;;;;;11.19;100.00;100448.13;4967309;28;20074;-58
2021/04/27 07:46:39;;;;;;;11.45;8.15;;;;;;;11.33;100.00;100441.19;4970210;28;20113;-58
2021/04/27 07:49:06;;;;;;;14.40;7.25;;;;;;;11.98;100.00;100442.53;4967522;28;20047;-58
2021/04/27 07:51:34;;;;;;;13.75;7.05;;;;;;;11.61;100.00;100441.47;4970235;28;20051;-58
2021/04/27 07:54:02;;;;;;;14.75;7.10;;;;;;;11.16;100.00;100443.13;4968373;28;20431;-58
2021/04/27 07:56:30;;;;;;;13.38;7.30;;;;;;;10.12;100.00;100445.78;4969983;28;20337;-58
2021/04/27 07:58:58;;;;;;;9.70;7.72;;;;;;;10.16;100.00;100441.78;4970705;28;20054;-58
2021/04/27 08:01:26;;;;;;;13.63;7.97;;;;;;;10.54;100.00;100434.03;4971016;28;20066;-58
2021/04/27 08:03:54;;;;;;;15.02;7.60;;;;;;;11.19;100.00;100445.44;4969697;28;20047;-58
2021/04/27 08:06:21;;;;;;;13.13;7.47;;;;;;;10.61;100.00;100444.88;4968862;28;20062;-58
2021/04/27 08:08:48;;;;;;;11.73;7.32;;;;;;;10.90;100.00;100438.06;4970275;28;20070;-58
2021/04/27 08:11:16;;;;;;;13.18;8.25;;;;;;;12.59;100.00;100438.91;4969424;28;20454;-58
2021/04/27 08:13:43;;;;;;;10.70;7.07;;;;;;;12.67;100.00;100428.09;4967052;28;20058;-58
2021/04/27 08:16:10;;;;;;;14.27;9.18;;;;;;;10.78;100.00;100430.44;4971137;28;20351;-58
2021/04/27 08:18:38;;;;;;;12.93;8.13;;;;;;;11.62;100.00;100421.72;4969758;28;20097;-58
2021/04/27 08:21:08;;;;;;;14.13;8.35;;;;;;;11.07;100.00;100423.63;4971850;28;20117;-58
2021/04/27 08:23:36;;;;;;;11.82;7.72;;;;;;;11.74;100.00;100419.47;4968938;28;20465;-58
2021/04/27 08:26:04;;;;;;;15.38;8.95;;;;;;;11.78;100.00;100422.59;4969155;28;20077;-58
2021/04/27 08:28:31;;;;;;;13.35;7.45;;;;;;;12.46;100.00;100425.31;4973522;28;20350;-58
2021/04/27 08:30:58;;;;;;;10.85;7.38;;;;;;;12.04;100.00;100417.72;4968903;28;20046;-58
2021/04/27 08:33:25;;;;;;;12.32;7.85;;;;;;;10.85;100.00;100419.91;4965143;28;20050;-58
2021/04/27 08:35:53;;;;;;;14.02;8.00;;;;;;;11.85;100.00;100410.16;4966621;28;20390;-58
2021/04/27 08:38:22;;;;;;;12.77;7.68;;;;;;;10.53;100.00;100421.69;4969418;28;20050;-58
2021/04/27 08:40:49;;;;;;;18.60;8.32;;;;;;;10.68;100.00;100409.28;4970526;28;20050;-58
2021/04/27 08:43:16;;;;;;;11.85;8.48;;;;;;;11.80;100.00;100400.03;4968763;28;20035;-58
2021/04/27 08:45:44;;;;;;;11.15;7.53;;;;;;;13.53;100.00;100410.50;4967009;28;20043;-58
2021/04/27 08:48:12;;;;;;;11.63;8.68;;;;;;;12.53;100.00;100402.97;4969912;28;20043;-58
2021/04/27 08:50:40;;;;;;;11.98;6.88;;;;;;;12.74;100.00;100399.53;4970059;28;20423;-58
2021/04/27 08:53:08;;;;;;;15.13;7.38;;;;;;;12.30;100.00;100403.06;4967839;28;20354;-58
2021/04/27 08:55:36;;;;;;;10.15;6.53;;;;;;;12.91;100.00;100401.97;4969829;28;20131;-58
2021/04/27 08:58:05;;;;;;;14.00;7.78;;;;;;;13.26;100.00;100399.47;4968456;28;20047;-58
2021/04/27 09:00:32;;;;;;;11.20;6.93;;;;;;;12.00;100.00;100391.50;4969991;28;20117;-58
2021/04/27 09:03:00;;;;;;;11.02;7.05;;;;;;;12.15;100.00;100399.53;4968051;28;20046;-58
2021/04/27 09:05:29;;;;;;;12.10;6.95;;;;;;;13.45;100.00;100399.88;4971206;28;20046;-58
2021/04/27 09:08:25;;;;;;;10.77;6.43;;;;;;;14.75;100.00;100393.13;4971319;28;20395;-58
2021/04/27 09:10:53;;;;;;;13.15;7.40;;;;;;;15.52;79.51;100383.97;4970660;28;20190;-58
2021/04/27 09:13:20;;;;;;;10.95;7.35;;;;;;;15.02;100.00;100387.84;4969411;28;20049;-59
2021/04/27 09:15:50;;;;;;;13.05;7.43;;;;;;;14.17;100.00;100392.59;4968306;28;20047;-58
2021/04/27 09:18:28;;;;;;;11.38;6.70;;;;;;;15.38;100.00;100389.38;4968738;28;20047;-58
2021/04/27 09:20:57;;;;;;;11.00;7.55;;;;;;;14.87;74.55;100387.16;4966016;28;20043;-58
2021/04/27 09:23:25;;;;;;;10.05;6.53;;;;;;;13.26;82.60;100383.38;4964336;28;20047;-58
2021/04/27 09:26:10;;;;;;;12.10;7.47;;;;;;;14.04;100.00;100379.91;4967661;28;20087;-58
2021/04/27 09:28:37;;;;;;;12.93;7.43;;;;;;;15.54;100.00;100371.16;4963483;28;20420;-58
2021/04/27 09:31:23;;;;;;;10.18;6.35;;;;;;;15.97;73.93;100368.88;4968125;28;20363;-58
2021/04/27 09:33:51;;;;;;;10.98;7.13;;;;;;;15.18;100.00;100369.66;4965404;28;20242;-57
2021/04/27 09:36:19;;;;;;;13.77;7.90;;;;;;;15.81;69.50;100355.84;4969926;28;20050;-58
2021/04/27 09:38:46;;;;;;;11.00;6.28;;;;;;;13.64;80.15;100356.31;4966168;28;20066;-58
2021/04/27 09:41:14;;;;;;;9.85;6.57;;;;;;;15.54;77.22;100358.53;4966977;28;20046;-58
2021/04/27 09:43:42;;;;;;;13.00;7.90;;;;;;;16.78;65.14;100352.44;4964992;28;20576;-58
2021/04/27 09:46:11;;;;;;;18.15;6.88;;;;;;;16.84;79.66;100355.09;4966915;28;20063;-58
2021/04/27 09:48:40;;;;;;;8.65;6.57;;;;;;;14.17;69.11;100355.00;4965390;28;20065;-58
2021/04/27 09:51:29;;;;;;;9.70;6.50;;;;;;;16.08;63.92;100350.44;4963102;28;20067;-58
2021/04/27 09:54:07;;;;;;;10.43;6.45;;;;;;;15.67;62.79;100338.84;4969691;28;20062;-58
2021/04/27 09:56:40;;;;;;;9.07;6.18;;;;;;;14.95;65.91;100346.66;4969224;28;20089;-58
2021/04/27 09:59:10;;;;;;;12.52;6.18;;;;;;;14.06;59.71;100341.13;4967970;28;20102;-58
2021/04/27 10:01:37;;;;;;;9.98;6.35;;;;;;;14.32;68.47;100330.69;4964788;28;20058;-58
2021/04/27 10:04:05;;;;;;;10.93;6.50;;;;;;;16.27;66.84;100335.22;4968162;28;20049;-57
2021/04/27 10:06:34;;;;;;;10.45;6.60;;;;;;;16.70;69.02;100331.97;4968024;28;20047;-57
2021/04/27 10:09:03;;;;;;;12.02;7.40;;;;;;;16.46;64.40;100323.56;4974035;28;20053;-57
2021/04/27 10:11:30;;;;;;;11.13;5.78;;;;;;;15.66;50.02;100315.66;4970167;28;20129;-57
2021/04/27 10:13:58;;;;;;;10.20;6.60;;;;;;;16.43;64.53;100323.16;4965012;28;20055;-59
2021/04/27 10:16:25;;;;;;;10.82;6.72;;;;;;;15.62;56.93;100309.88;4969716;28;20047;-57
2021/04/27 10:18:57;;;;;;;10.45;6.82;;;;;;;15.60;63.18;100316.50;4973012;28;20051;-60
2021/04/27 10:21:24;;;;;;;9.50;6.18;;;;;;;16.07;55.42;100306.50;4974879;28;20050;-59
2021/04/27 10:24:07;;;;;;;10.65;7.07;;;;;;;16.11;55.00;100313.09;4967658;28;20042;-59
2021/04/27 10:26:36;;;;;;;9.32;6.25;;;;;;;16.39;50.22;100305.75;4969763;28;20047;-57
2021/04/27 10:29:06;;;;;;;15.18;7.53;;;;;;;16.19;51.61;100309.38;4967243;28;20054;-59
2021/04/27 10:31:35;;;;;;;9.38;6.45;;;;;;;16.39;59.58;100309.28;4969946;28;20123;-58
2021/04/27 10:34:06;;;;;;;10.05;6.95;;;;;;;16.36;55.40;100301.63;4961930;28;20050;-58
2021/04/27 10:36:35;;;;;;;10.60;7.28;;;;;;;15.51;57.42;100302.44;4969820;28;20043;-57
2021/04/27 10:39:04;;;;;;;12.13;6.70;;;;;;;15.87;56.92;100305.72;4964776;28;20450;-57
2021/04/27 10:41:53;;;;;;;17.77;8.93;;;;;;;16.16;52.79;100299.84;4967050;28;20041;-57
2021/04/27 10:44:22;;;;;;;16.25;10.07;;;;;;;15.93;55.74;100299.50;4970890;28;20039;-57
2021/04/27 10:46:52;;;;;;;12.77;7.80;;;;;;;16.30;67.85;100300.63;4967874;28;20058;-58
2021/04/27 10:49:23;;;;;;;12.43;7.80;;;;;;;17.13;53.00;100293.53;4972783;28;20057;-57
2021/04/27 10:51:51;;;;;;;16.17;8.65;;;;;;;18.04;48.11;100301.22;4971959;28;20039;-58
2021/04/27 10:54:21;;;;;;;13.30;7.40;;;;;;;17.65;47.68;100292.47;4966702;28;20141;-57
2021/04/27 10:56:49;;;;;;;11.95;8.27;;;;;;;17.78;53.09;100289.63;4974613;28;20043;-57
2021/04/27 10:59:17;;;;;;;11.10;7.35;;;;;;;16.22;63.04;100287.38;4973710;28;20058;-57
2021/04/27 11:01:46;;;;;;;12.48;7.90;;;;;;;16.97;54.14;100284.09;4970345;28;20039;-57
2021/04/27 11:04:28;;;;;;;10.05;7.53;;;;;;;17.11;45.56;100286.69;4970626;28;20050;-57
2021/04/27 11:07:12;;;;;;;13.18;7.80;;;;;;;17.42;53.06;100282.31;4970761;28;20447;-57
2021/04/27 11:09:39;;;;;;;10.63;7.45;;;;;;;17.15;44.73;100288.75;4971675;28;20055;-57
2021/04/27 11:12:31;;;;;;;13.10;8.80;;;;;;;17.77;59.01;100279.88;4971889;28;20042;-58
2021/04/27 11:14:59;;;;;;;12.32;8.18;;;;;;;17.86;47.43;100275.84;4953047;28;20051;-57
2021/04/27 11:17:29;;;;;;;16.33;9.38;;;;;;;18.56;47.13;100271.06;4969986;28;20054;-57
2021/04/27 11:19:56;;;;;;;11.80;8.13;;;;;;;17.48;48.71;100274.16;4969393;28;20052;-57
2021/04/27 11:22:24;;;;;;;11.55;7.35;;;;;;;17.07;47.00;100263.91;4968719;28;20078;-57